createdAt,value
2018-04-29T00:00:25.350Z,13.90
2018-04-29T00:02:52.778Z,13.90
2018-04-29T00:05:20.986Z,14.10
2018-04-29T00:07:48.411Z,14.00
2018-04-29T00:10:16.623Z,13.90
2018-04-29T00:12:44.052Z,13.90
2018-04-29T00:15:11.498Z,13.50
2018-04-29T00:17:39.709Z,13.00
2018-04-29T00:20:07.144Z,12.90
2018-04-29T00:22:35.347Z,13.10
2018-04-29T00:25:02.801Z,13.00
2018-04-29T00:27:30.259Z,12.80
2018-04-29T00:29:57.698Z,12.80
2018-04-29T00:32:25.142Z,12.90
2018-04-29T00:34:52.575Z,13.10
2018-04-29T00:37:20.015Z,13.30
2018-04-29T00:39:47.455Z,13.50
2018-04-29T00:42:15.132Z,13.60
2018-04-29T00:44:42.568Z,13.70
2018-04-29T00:47:10.015Z,13.70
2018-04-29T00:49:37.456Z,13.60
2018-04-29T00:52:06.705Z,13.60
2018-04-29T00:54:34.141Z,13.80
2018-04-29T00:57:01.587Z,13.70
2018-04-29T00:59:29.037Z,13.70
2018-04-29T01:01:56.700Z,14.00
2018-04-29T01:04:24.202Z,14.10
2018-04-29T01:06:51.659Z,14.10
2018-04-29T01:09:19.168Z,14.20
2018-04-29T01:11:46.601Z,14.30
2018-04-29T01:14:14.031Z,14.40
2018-04-29T01:16:41.471Z,14.40
2018-04-29T01:19:08.910Z,14.30
2018-04-29T01:21:36.355Z,14.40
2018-04-29T01:24:03.783Z,14.40
2018-04-29T01:26:31.223Z,14.50
2018-04-29T01:28:59.428Z,14.30
2018-04-29T01:31:26.882Z,14.30
2018-04-29T01:33:54.757Z,14.20
2018-04-29T01:36:22.221Z,14.10
2018-04-29T01:38:49.649Z,14.10
2018-04-29T01:41:17.846Z,14.20
2018-04-29T01:43:45.282Z,14.20
2018-04-29T01:46:12.719Z,14.40
2018-04-29T01:48:40.917Z,14.40
2018-04-29T01:51:08.360Z,14.40
2018-04-29T01:53:35.798Z,14.40
2018-04-29T01:56:03.994Z,14.50
2018-04-29T01:58:31.431Z,14.50
2018-04-29T02:00:59.630Z,14.60
2018-04-29T02:03:27.062Z,14.60
2018-04-29T02:05:55.259Z,14.60
2018-04-29T02:08:22.694Z,14.60
2018-04-29T02:10:50.119Z,14.70
2018-04-29T02:13:17.563Z,14.80
2018-04-29T02:15:44.987Z,14.80
2018-04-29T02:18:12.476Z,14.80
2018-04-29T02:20:39.938Z,14.60
2018-04-29T02:23:07.374Z,14.70
2018-04-29T02:25:35.800Z,14.60
2018-04-29T02:28:03.244Z,14.60
2018-04-29T02:30:30.680Z,14.30
2018-04-29T02:32:58.129Z,14.10
2018-04-29T02:35:25.574Z,13.90
2018-04-29T02:37:53.017Z,13.80
2018-04-29T02:40:20.452Z,13.70
2018-04-29T02:42:47.898Z,13.60
2018-04-29T02:45:15.322Z,13.50
2018-04-29T02:47:42.764Z,13.50
2018-04-29T02:50:10.203Z,13.50
2018-04-29T02:52:37.645Z,13.50
2018-04-29T02:55:05.071Z,13.50
2018-04-29T02:57:32.510Z,13.50
2018-04-29T02:59:59.947Z,13.50
2018-04-29T03:02:27.392Z,13.50
2018-04-29T03:04:54.822Z,13.40
2018-04-29T03:07:22.264Z,13.40
2018-04-29T03:09:50.477Z,13.30
2018-04-29T03:12:17.929Z,13.30
2018-04-29T03:14:45.364Z,13.30
2018-04-29T03:17:12.800Z,13.20
2018-04-29T03:19:40.248Z,13.10
2018-04-29T03:22:07.675Z,12.90
2018-04-29T03:24:35.120Z,12.90
2018-04-29T03:27:02.556Z,13.00
2018-04-29T03:29:29.994Z,13.00
2018-04-29T03:31:58.204Z,12.80
2018-04-29T03:34:25.641Z,12.80
2018-04-29T03:36:53.062Z,12.80
2018-04-29T03:39:20.498Z,12.80
2018-04-29T03:41:47.927Z,12.70
2018-04-29T03:44:15.368Z,12.60
2018-04-29T03:46:42.791Z,12.60
2018-04-29T03:49:10.234Z,12.70
2018-04-29T03:51:37.653Z,12.60
2018-04-29T03:54:05.104Z,12.60
2018-04-29T03:56:32.531Z,12.50
2018-04-29T04:02:15.139Z,12.40
2018-04-29T04:04:42.575Z,12.40
2018-04-29T04:07:10.006Z,12.40
2018-04-29T04:09:37.442Z,12.30
2018-04-29T04:12:04.871Z,12.20
2018-04-29T04:14:32.311Z,12.00
2018-04-29T04:16:59.744Z,11.90
2018-04-29T04:19:27.194Z,11.90
2018-04-29T04:21:54.623Z,11.70
2018-04-29T04:24:22.823Z,11.60
2018-04-29T04:26:50.255Z,11.60
2018-04-29T04:29:17.687Z,11.50
2018-04-29T04:31:45.123Z,11.50
2018-04-29T04:34:12.601Z,11.50
2018-04-29T04:36:40.009Z,11.50
2018-04-29T04:39:07.435Z,11.60
2018-04-29T04:41:34.859Z,11.50
2018-04-29T04:44:02.303Z,11.50
2018-04-29T04:46:29.747Z,11.40
2018-04-29T04:48:57.190Z,11.30
2018-04-29T04:51:24.620Z,11.10
2018-04-29T04:53:52.827Z,11.20
2018-04-29T04:56:20.275Z,11.10
2018-04-29T04:58:47.760Z,11.20
2018-04-29T05:01:15.186Z,11.20
2018-04-29T05:03:42.608Z,11.20
2018-04-29T05:06:10.824Z,11.20
2018-04-29T05:08:38.253Z,11.20
2018-04-29T05:11:05.699Z,11.30
2018-04-29T05:13:33.916Z,11.90
2018-04-29T05:16:01.355Z,11.80
2018-04-29T05:18:28.789Z,11.80
2018-04-29T05:20:56.998Z,12.00
2018-04-29T05:23:24.427Z,12.00
2018-04-29T05:25:51.872Z,11.90
2018-04-29T05:28:20.084Z,12.10
2018-04-29T05:30:47.543Z,12.10
2018-04-29T05:33:14.982Z,12.40
2018-04-29T05:35:42.420Z,12.90
2018-04-29T05:38:10.611Z,13.50
2018-04-29T05:40:38.051Z,13.50
2018-04-29T05:43:06.259Z,13.50
2018-04-29T05:45:34.465Z,14.00
2018-04-29T05:48:01.905Z,14.00
2018-04-29T05:50:29.341Z,14.90
2018-04-29T05:52:56.764Z,15.30
2018-04-29T05:55:24.972Z,15.90
2018-04-29T05:57:52.536Z,15.90
2018-04-29T06:00:19.963Z,16.10
2018-04-29T06:02:48.150Z,16.70
2018-04-29T06:05:15.590Z,16.70
2018-04-29T06:07:43.783Z,18.00
2018-04-29T06:10:11.214Z,17.90
2018-04-29T06:12:38.646Z,18.80
2018-04-29T06:15:06.096Z,19.30
2018-04-29T06:17:33.529Z,18.30
2018-04-29T06:20:00.966Z,17.90
2018-04-29T06:22:28.395Z,17.40
2018-04-29T06:24:56.602Z,17.00
2018-04-29T06:27:24.027Z,17.00
2018-04-29T06:29:52.238Z,18.30
2018-04-29T06:32:19.683Z,18.30
2018-04-29T06:34:55.710Z,19.60
2018-04-29T06:37:23.147Z,20.20
2018-04-29T06:39:50.588Z,20.50
2018-04-29T06:42:18.030Z,21.10
2018-04-29T06:44:45.457Z,20.50
2018-04-29T06:47:12.935Z,21.10
2018-04-29T06:49:41.108Z,21.40
2018-04-29T06:52:08.558Z,21.40
2018-04-29T06:54:35.987Z,19.30
2018-04-29T06:57:04.207Z,19.00
2018-04-29T06:59:31.633Z,19.00
2018-04-29T07:01:59.071Z,18.80
2018-04-29T07:04:27.296Z,18.40
2018-04-29T07:06:54.747Z,18.40
2018-04-29T07:09:22.195Z,18.80
2018-04-29T07:11:49.642Z,18.60
2018-04-29T07:14:17.140Z,18.80
2018-04-29T07:16:44.587Z,19.00
2018-04-29T07:19:12.019Z,19.00
2018-04-29T07:21:39.464Z,18.80
2018-04-29T07:24:06.890Z,18.90
2018-04-29T07:26:35.099Z,19.10
2018-04-29T07:29:02.551Z,19.10
2018-04-29T07:31:29.989Z,19.30
2018-04-29T07:33:58.264Z,20.00
2018-04-29T07:36:25.647Z,20.10
2018-04-29T07:38:53.079Z,20.20
2018-04-29T07:41:20.508Z,20.10
2018-04-29T07:43:47.942Z,20.10
2018-04-29T07:46:15.385Z,20.20
2018-04-29T07:48:42.821Z,20.30
2018-04-29T07:51:10.255Z,20.80
2018-04-29T07:53:38.463Z,21.20
2018-04-29T07:56:05.944Z,21.20
2018-04-29T07:58:33.379Z,20.90
2018-04-29T08:01:00.829Z,21.40
2018-04-29T08:03:28.257Z,21.20
2018-04-29T08:05:55.699Z,21.10
2018-04-29T08:08:24.036Z,21.60
2018-04-29T08:10:51.469Z,21.60
2018-04-29T08:13:20.078Z,21.70
2018-04-29T08:15:47.615Z,22.10
2018-04-29T08:18:15.028Z,21.70
2018-04-29T08:20:43.233Z,22.30
2018-04-29T08:23:10.678Z,22.20
2018-04-29T08:25:38.116Z,22.60
2018-04-29T08:28:06.331Z,22.40
2018-04-29T08:30:33.756Z,22.40
2018-04-29T08:33:01.189Z,22.40
2018-04-29T08:35:28.626Z,23.00
2018-04-29T08:37:56.063Z,23.20
2018-04-29T08:40:23.500Z,23.50
2018-04-29T08:42:50.935Z,23.30
2018-04-29T08:45:19.129Z,23.30
2018-04-29T08:47:46.555Z,23.30
2018-04-29T08:50:14.764Z,24.70
2018-04-29T08:52:42.203Z,24.70
2018-04-29T08:55:09.637Z,24.90
2018-04-29T08:57:37.846Z,25.20
2018-04-29T09:00:05.277Z,25.20
2018-04-29T09:02:33.484Z,25.70
2018-04-29T09:05:00.915Z,25.70
2018-04-29T09:07:28.358Z,26.70
2018-04-29T09:09:56.564Z,26.70
2018-04-29T09:12:24.020Z,26.70
2018-04-29T09:14:51.448Z,26.80
2018-04-29T09:17:19.659Z,26.00
2018-04-29T09:19:47.102Z,26.00
2018-04-29T09:22:14.541Z,26.50
2018-04-29T09:24:41.971Z,26.70
2018-04-29T09:27:09.414Z,25.60
2018-04-29T09:29:36.851Z,26.70
2018-04-29T09:32:04.300Z,26.80
2018-04-29T09:34:31.742Z,27.10
2018-04-29T09:36:59.219Z,25.40
2018-04-29T09:39:26.634Z,25.70
2018-04-29T09:41:54.078Z,25.90
2018-04-29T09:44:22.285Z,27.80
2018-04-29T09:46:49.739Z,27.70
2018-04-29T09:49:17.185Z,27.70
2018-04-29T09:51:44.634Z,28.30
2018-04-29T09:54:12.062Z,28.80
2018-04-29T09:56:39.496Z,28.50
2018-04-29T09:59:06.938Z,28.50
2018-04-29T10:01:35.151Z,27.90
2018-04-29T10:04:03.407Z,28.30
2018-04-29T10:06:30.798Z,28.30
2018-04-29T10:08:58.246Z,28.30
2018-04-29T10:11:26.453Z,27.60
2018-04-29T10:13:54.175Z,27.60
2018-04-29T10:16:21.599Z,28.50
2018-04-29T10:18:49.124Z,29.00
2018-04-29T10:21:16.489Z,29.20
2018-04-29T10:23:43.924Z,28.70
2018-04-29T10:26:11.355Z,28.80
2018-04-29T10:28:39.567Z,30.30
2018-04-29T10:31:06.998Z,30.20
2018-04-29T10:33:34.439Z,28.90
2018-04-29T10:36:02.648Z,29.00
2018-04-29T10:38:30.088Z,29.00
2018-04-29T10:40:57.521Z,29.50
2018-04-29T10:43:24.959Z,28.80
2018-04-29T10:45:52.406Z,29.10
2018-04-29T10:48:19.852Z,29.60
2018-04-29T10:50:47.288Z,29.10
2018-04-29T10:53:14.713Z,29.70
2018-04-29T10:55:42.907Z,30.60
2018-04-29T10:58:10.352Z,30.60
2018-04-29T11:00:38.542Z,30.20
2018-04-29T11:03:05.998Z,30.20
2018-04-29T11:05:33.427Z,29.70
2018-04-29T11:08:01.636Z,29.40
2018-04-29T11:10:29.074Z,29.40
2018-04-29T11:12:56.526Z,27.90
2018-04-29T11:15:23.967Z,29.00
2018-04-29T11:17:52.190Z,29.30
2018-04-29T11:20:19.625Z,29.30
2018-04-29T11:22:47.069Z,29.00
2018-04-29T11:25:14.495Z,29.20
2018-04-29T11:27:41.933Z,30.40
2018-04-29T11:30:09.383Z,29.60
2018-04-29T11:32:36.823Z,29.30
2018-04-29T11:35:04.266Z,29.50
2018-04-29T11:37:31.699Z,29.80
2018-04-29T11:39:59.908Z,29.90
2018-04-29T11:42:27.363Z,29.90
2018-04-29T11:44:54.799Z,29.80
2018-04-29T11:47:22.225Z,30.00
2018-04-29T11:49:50.433Z,29.50
2018-04-29T11:52:17.855Z,29.50
2018-04-29T11:54:46.108Z,28.90
2018-04-29T11:57:13.553Z,28.90
2018-04-29T11:59:40.990Z,28.10
2018-04-29T12:02:08.421Z,29.90
2018-04-29T12:04:35.862Z,30.10
2018-04-29T12:07:04.071Z,31.60
2018-04-29T12:09:31.526Z,31.50
2018-04-29T12:11:59.039Z,32.00
2018-04-29T12:14:26.394Z,30.80
2018-04-29T12:16:54.589Z,29.90
2018-04-29T12:19:22.031Z,29.90
2018-04-29T12:21:50.241Z,30.00
2018-04-29T12:24:17.668Z,30.00
2018-04-29T12:26:45.866Z,28.70
2018-04-29T12:29:13.300Z,28.60
2018-04-29T12:31:41.494Z,30.60
2018-04-29T12:34:08.935Z,30.60
2018-04-29T12:36:36.369Z,30.20
2018-04-29T12:39:04.612Z,30.20
2018-04-29T12:41:32.042Z,30.20
2018-04-29T12:43:59.486Z,28.30
2018-04-29T12:46:26.918Z,29.70
2018-04-29T12:48:55.127Z,29.80
2018-04-29T12:51:22.564Z,29.80
2018-04-29T12:53:49.999Z,28.60
2018-04-29T12:56:18.220Z,30.00
2018-04-29T12:58:45.647Z,30.00
2018-04-29T13:01:13.083Z,29.80
2018-04-29T13:03:40.514Z,30.10
2018-04-29T13:06:07.956Z,28.90
2018-04-29T13:08:35.391Z,29.70
2018-04-29T13:11:02.844Z,30.00
2018-04-29T13:13:30.278Z,29.90
2018-04-29T13:15:58.487Z,29.30
2018-04-29T13:18:25.936Z,29.30
2018-04-29T13:20:53.374Z,30.30
2018-04-29T13:23:21.194Z,30.40
2018-04-29T13:25:48.643Z,30.40
2018-04-29T13:28:16.079Z,30.40
2018-04-29T13:30:43.521Z,29.80
2018-04-29T13:33:10.979Z,30.00
2018-04-29T13:35:38.436Z,29.00
2018-04-29T13:38:05.862Z,29.70
2018-04-29T13:40:34.083Z,28.70
2018-04-29T13:43:01.516Z,28.70
2018-04-29T13:45:28.957Z,29.00
2018-04-29T13:47:56.390Z,29.10
2018-04-29T13:50:24.601Z,29.00
2018-04-29T13:52:52.031Z,29.00
2018-04-29T13:55:20.243Z,28.70
2018-04-29T13:57:47.697Z,28.70
2018-04-29T14:00:15.147Z,28.20
2018-04-29T14:02:42.599Z,28.20
2018-04-29T14:05:10.027Z,28.50
2018-04-29T14:07:38.238Z,28.90
2018-04-29T14:10:05.690Z,28.80
2018-04-29T14:12:33.129Z,28.80
2018-04-29T14:15:00.569Z,28.50
2018-04-29T14:17:28.784Z,28.70
2018-04-29T14:19:56.290Z,28.70
2018-04-29T14:22:23.660Z,29.00
2018-04-29T14:24:51.846Z,28.30
2018-04-29T14:27:19.285Z,28.30
2018-04-29T14:29:47.492Z,28.50
2018-04-29T14:32:14.934Z,28.50
2018-04-29T14:34:42.364Z,28.70
2018-04-29T14:37:10.587Z,28.30
2018-04-29T14:39:38.032Z,28.30
2018-04-29T14:42:05.485Z,28.40
2018-04-29T14:44:32.900Z,28.20
2018-04-29T14:47:00.332Z,28.10
2018-04-29T14:49:27.782Z,28.10
2018-04-29T14:51:55.211Z,28.00
2018-04-29T14:54:22.630Z,28.00
2018-04-29T14:56:50.842Z,27.90
2018-04-29T14:59:18.279Z,27.90
2018-04-29T15:01:45.719Z,28.00
2018-04-29T15:04:13.929Z,27.90
2018-04-29T15:06:41.383Z,27.90
2018-04-29T15:09:08.808Z,27.70
2018-04-29T15:11:37.016Z,27.80
2018-04-29T15:14:05.206Z,28.00
2018-04-29T15:16:32.655Z,28.00
2018-04-29T15:19:00.107Z,28.10
2018-04-29T15:21:27.532Z,27.80
2018-04-29T15:23:54.959Z,27.80
2018-04-29T15:26:22.395Z,27.80
2018-04-29T15:28:49.832Z,27.60
2018-04-29T15:31:17.279Z,27.80
2018-04-29T15:33:44.702Z,27.70
2018-04-29T15:36:12.915Z,27.90
2018-04-29T15:38:40.339Z,27.80
2018-04-29T15:41:08.547Z,27.50
2018-04-29T15:43:35.980Z,27.40
2018-04-29T15:46:03.418Z,27.60
2018-04-29T15:48:31.627Z,27.80
2018-04-29T15:50:59.077Z,27.80
2018-04-29T15:53:26.518Z,27.50
2018-04-29T15:55:53.959Z,27.40
2018-04-29T15:58:22.171Z,27.30
2018-04-29T16:00:49.613Z,27.30
2018-04-29T16:03:17.050Z,27.30
2018-04-29T16:05:45.252Z,27.20
2018-04-29T16:08:12.704Z,27.20
2018-04-29T16:10:40.138Z,27.00
2018-04-29T16:13:08.335Z,26.90
2018-04-29T16:15:35.776Z,26.90
2018-04-29T16:18:03.222Z,27.00
2018-04-29T16:20:30.660Z,27.00
2018-04-29T16:22:58.872Z,26.80
2018-04-29T16:25:26.293Z,26.80
2018-04-29T16:27:54.495Z,26.70
2018-04-29T16:30:21.918Z,26.70
2018-04-29T16:32:50.135Z,26.80
2018-04-29T16:35:17.573Z,26.80
2018-04-29T16:37:45.011Z,26.90
2018-04-29T16:40:13.227Z,26.80
2018-04-29T16:42:40.663Z,26.80
2018-04-29T16:45:08.100Z,26.80
2018-04-29T16:47:36.308Z,26.60
2018-04-29T16:50:03.739Z,26.60
2018-04-29T16:52:31.189Z,26.70
2018-04-29T16:54:59.394Z,26.60
2018-04-29T16:57:26.866Z,26.60
2018-04-29T16:59:54.317Z,26.50
2018-04-29T17:02:21.755Z,26.40
2018-04-29T17:04:49.178Z,26.40
2018-04-29T17:07:16.617Z,26.30
2018-04-29T17:09:44.099Z,26.30
2018-04-29T17:12:12.306Z,26.10
2018-04-29T17:14:39.738Z,26.10
2018-04-29T17:17:07.190Z,26.10
2018-04-29T17:19:34.605Z,26.00
2018-04-29T17:22:02.048Z,25.90
2018-04-29T17:24:29.484Z,25.90
2018-04-29T17:26:56.913Z,25.80
2018-04-29T17:29:24.386Z,25.80
2018-04-29T17:31:52.566Z,25.80
2018-04-29T17:34:20.024Z,25.70
2018-04-29T17:36:47.459Z,25.70
2018-04-29T17:39:14.915Z,25.60
2018-04-29T17:41:43.108Z,25.50
2018-04-29T17:44:10.626Z,25.50
2018-04-29T17:46:38.733Z,25.40
2018-04-29T17:49:06.171Z,25.40
2018-04-29T17:51:33.600Z,25.30
2018-04-29T17:54:01.045Z,25.30
2018-04-29T17:56:28.481Z,25.20
2018-04-29T17:58:55.926Z,25.10
2018-04-29T18:01:23.443Z,24.90
2018-04-29T18:03:50.819Z,24.90
2018-04-29T18:06:18.251Z,24.80
2018-04-29T18:08:46.464Z,24.70
2018-04-29T18:11:13.903Z,24.70
2018-04-29T18:13:41.406Z,24.60
2018-04-29T18:16:09.535Z,24.50
2018-04-29T18:18:36.967Z,24.50
2018-04-29T18:21:04.462Z,24.50
2018-04-29T18:23:31.877Z,24.30
2018-04-29T18:26:00.065Z,24.10
2018-04-29T18:28:27.511Z,24.10
2018-04-29T18:30:55.717Z,23.90
2018-04-29T18:33:23.163Z,23.90
2018-04-29T18:35:50.599Z,24.00
2018-04-29T18:38:18.815Z,23.90
2018-04-29T18:40:46.766Z,23.90
2018-04-29T18:43:14.199Z,23.80
2018-04-29T18:45:42.408Z,23.70
2018-04-29T18:48:10.607Z,23.80
2018-04-29T18:50:38.169Z,23.80
2018-04-29T18:53:05.492Z,23.90
2018-04-29T18:55:32.924Z,23.60
2018-04-29T18:58:00.358Z,23.50
2018-04-29T19:00:28.575Z,23.50
2018-04-29T19:02:56.024Z,23.60
2018-04-29T19:05:23.505Z,23.30
2018-04-29T19:07:50.939Z,23.20
2018-04-29T19:10:18.385Z,23.00
2018-04-29T19:12:45.816Z,23.00
2018-04-29T19:15:14.026Z,22.90
2018-04-29T19:17:41.454Z,22.90
2018-04-29T19:20:09.667Z,22.90
2018-04-29T19:22:37.111Z,22.90
2018-04-29T19:25:04.571Z,22.80
2018-04-29T19:27:32.004Z,22.70
2018-04-29T19:29:59.438Z,22.70
2018-04-29T19:32:27.648Z,22.70
2018-04-29T19:34:55.090Z,22.70
2018-04-29T19:37:22.518Z,22.70
2018-04-29T19:39:49.962Z,22.90
2018-04-29T19:42:17.407Z,23.10
2018-04-29T19:44:44.854Z,23.10
2018-04-29T19:47:12.306Z,23.10
2018-04-29T19:49:39.816Z,23.20
2018-04-29T19:52:07.175Z,23.00
2018-04-29T19:54:34.613Z,22.90
2018-04-29T19:57:02.060Z,23.20
2018-04-29T19:59:29.527Z,22.70
2018-04-29T20:01:56.963Z,22.50
2018-04-29T20:04:24.417Z,22.30
2018-04-29T20:06:51.845Z,22.10
2018-04-29T20:09:19.276Z,21.90
2018-04-29T20:11:47.484Z,21.90
2018-04-29T20:14:14.918Z,21.90
2018-04-29T20:16:42.359Z,21.80
2018-04-29T20:19:10.564Z,21.70
2018-04-29T20:21:37.983Z,21.70
2018-04-29T20:24:05.409Z,21.70
2018-04-29T20:26:32.840Z,21.60
2018-04-29T20:29:00.297Z,21.50
2018-04-29T20:31:27.724Z,21.30
2018-04-29T20:33:55.944Z,21.10
2018-04-29T20:36:23.387Z,21.10
2018-04-29T20:38:50.810Z,20.90
2018-04-29T20:41:19.014Z,20.80
2018-04-29T20:43:46.449Z,20.80
2018-04-29T20:46:14.667Z,20.80
2018-04-29T20:48:42.094Z,20.70
2018-04-29T20:51:09.534Z,20.70
2018-04-29T20:53:37.874Z,20.60
2018-04-29T20:56:05.320Z,20.60
2018-04-29T20:58:32.764Z,20.50
2018-04-29T21:01:00.355Z,20.50
2018-04-29T21:03:27.928Z,20.60
2018-04-29T21:05:55.359Z,20.60
2018-04-29T21:08:22.793Z,20.60
2018-04-29T21:10:50.244Z,20.60
2018-04-29T21:13:17.670Z,20.70
2018-04-29T21:15:45.883Z,20.50
2018-04-29T21:18:13.369Z,20.50
2018-04-29T21:20:40.803Z,20.40
2018-04-29T21:23:08.230Z,20.30
2018-04-29T21:25:35.674Z,20.30
2018-04-29T21:28:03.872Z,20.30
2018-04-29T21:30:31.309Z,20.20
2018-04-29T21:32:59.521Z,20.20
2018-04-29T21:35:26.954Z,20.20
2018-04-29T21:37:54.388Z,20.00
2018-04-29T21:40:21.821Z,19.90
2018-04-29T21:42:49.267Z,19.70
2018-04-29T21:45:16.701Z,19.60
2018-04-29T21:47:44.145Z,19.60
2018-04-29T21:50:11.582Z,19.40
2018-04-29T21:52:39.783Z,19.30
2018-04-29T21:55:07.229Z,19.30
2018-04-29T21:57:34.656Z,19.10
2018-04-29T22:00:02.093Z,19.00
2018-04-29T22:02:29.526Z,18.80
2018-04-29T22:04:56.967Z,18.60
2018-04-29T22:07:24.397Z,18.30
2018-04-29T22:09:52.590Z,18.10
2018-04-29T22:12:20.027Z,18.10
2018-04-29T22:14:48.238Z,17.80
2018-04-29T22:17:15.686Z,17.80
2018-04-29T22:19:43.107Z,17.70
2018-04-29T22:22:11.316Z,17.70
2018-04-29T22:24:38.732Z,17.70
2018-04-29T22:27:06.946Z,17.80
2018-04-29T22:29:34.382Z,17.80
2018-04-29T22:32:01.822Z,17.70
2018-04-29T22:34:30.027Z,17.70
2018-04-29T22:36:57.468Z,17.70
2018-04-29T22:39:24.901Z,17.80
2018-04-29T22:41:52.334Z,17.70
2018-04-29T22:44:19.804Z,17.60
2018-04-29T22:46:47.244Z,17.60
2018-04-29T22:49:14.694Z,17.50
2018-04-29T22:51:42.143Z,17.40
2018-04-29T22:54:09.571Z,17.40
2018-04-29T22:56:37.011Z,17.40
2018-04-29T22:59:05.209Z,17.30
2018-04-29T23:01:32.646Z,17.20
2018-04-29T23:04:00.085Z,17.20
2018-04-29T23:06:27.530Z,17.20
2018-04-29T23:08:54.965Z,17.10
2018-04-29T23:11:22.410Z,17.10
2018-04-29T23:13:49.851Z,17.10
2018-04-29T23:16:17.293Z,17.00
2018-04-29T23:18:44.720Z,16.90
2018-04-29T23:21:12.152Z,16.90
2018-04-29T23:23:39.592Z,16.90
2018-04-29T23:26:07.034Z,17.00
2018-04-29T23:28:34.458Z,16.90
2018-04-29T23:31:02.666Z,16.90
2018-04-29T23:33:30.104Z,16.90
2018-04-29T23:35:57.535Z,16.90
2018-04-29T23:38:24.978Z,16.90
2018-04-29T23:40:52.415Z,17.00
2018-04-29T23:43:19.856Z,17.00
2018-04-29T23:45:47.298Z,17.30
2018-04-29T23:48:14.739Z,17.20
2018-04-29T23:50:42.166Z,17.40
2018-04-29T23:53:09.602Z,17.60
2018-04-29T23:55:37.044Z,17.60
2018-04-29T23:58:04.487Z,17.50
